createdAt,value
2022-08-19T18:56:02.486Z,20.41
2022-08-19T18:57:03.462Z,20.33
2022-08-19T18:58:02.884Z,20.31
2022-08-19T18:59:02.944Z,20.30
2022-08-19T19:00:02.184Z,20.28
2022-08-19T19:01:02.643Z,20.27
2022-08-19T19:02:02.207Z,20.24
2022-08-19T19:03:14.837Z,20.23
2022-08-19T19:04:02.135Z,20.21
2022-08-19T19:05:06.954Z,20.21
2022-08-19T19:06:30.796Z,20.16
2022-08-19T19:07:02.693Z,20.20
2022-08-19T19:08:02.846Z,20.16
2022-08-19T19:09:03.011Z,20.15
2022-08-19T19:10:03.007Z,20.13
2022-08-19T19:11:02.310Z,20.12
2022-08-19T19:12:02.075Z,20.10
2022-08-19T19:13:06.049Z,20.08
2022-08-19T19:14:27.634Z,20.06
2022-08-19T19:15:02.026Z,20.03
2022-08-19T19:16:09.343Z,20.02
2022-08-19T19:17:02.692Z,19.97
2022-08-19T19:18:02.234Z,19.95
2022-08-19T19:20:37.640Z,19.93
2022-08-19T19:20:42.476Z,19.90
2022-08-19T19:21:42.501Z,19.90
2022-08-19T19:22:43.443Z,19.87
2022-08-19T19:23:43.140Z,19.84
2022-08-19T19:24:46.048Z,19.84
2022-08-19T19:25:50.423Z,19.84
2022-08-19T19:27:37.476Z,19.80
2022-08-19T19:29:39.093Z,19.79
2022-08-19T19:29:47.373Z,19.79
2022-08-19T19:30:43.942Z,19.80
2022-08-19T19:31:45.134Z,19.79
2022-08-19T19:32:43.922Z,19.78
2022-08-19T19:33:58.828Z,19.73
2022-08-19T19:34:44.130Z,19.72
2022-08-19T19:35:47.106Z,19.70
2022-08-19T19:36:43.901Z,19.68
2022-08-19T19:37:51.382Z,19.68
2022-08-19T19:38:48.690Z,19.65
2022-08-19T19:47:49.570Z,19.66
2022-08-19T19:47:56.240Z,19.50
2022-08-19T20:01:08.005Z,19.50
2022-08-19T20:01:21.052Z,19.38
2022-08-19T20:19:25.459Z,19.39
2022-08-19T20:19:30.482Z,19.40
2022-08-19T20:20:32.845Z,19.38
2022-08-19T20:38:53.606Z,19.35
2022-08-19T20:38:58.713Z,19.10
2022-08-19T20:40:02.092Z,19.10
2022-08-19T20:40:58.596Z,19.08
2022-08-19T20:44:05.773Z,19.08
2022-08-19T20:50:16.461Z,19.01
2022-08-19T20:50:21.318Z,19.01
2022-08-19T20:51:21.318Z,19.01
2022-08-19T20:52:21.308Z,18.99
2022-08-19T20:53:21.259Z,18.97
2022-08-19T20:54:21.259Z,18.92
2022-08-19T20:55:21.244Z,18.90
2022-08-19T20:56:21.274Z,18.83
2022-08-19T20:57:21.274Z,18.80
2022-08-19T20:58:21.471Z,18.79
2022-08-19T20:59:21.241Z,18.76
2022-08-19T21:00:21.205Z,18.76
2022-08-19T21:01:21.256Z,18.73
2022-08-19T21:02:21.174Z,18.72
2022-08-19T21:03:21.179Z,18.72
2022-08-19T21:04:21.182Z,18.70
2022-08-19T21:05:21.139Z,18.67
2022-08-19T21:06:22.173Z,18.62
2022-08-19T21:07:22.052Z,18.59
2022-08-19T21:08:21.128Z,18.55
2022-08-19T21:09:21.137Z,18.54
2022-08-19T21:10:21.102Z,18.52
2022-08-19T21:11:21.101Z,18.50
2022-08-19T21:12:24.589Z,18.49
2022-08-19T21:13:21.057Z,18.49
2022-08-19T21:14:21.053Z,18.49
2022-08-19T21:15:21.049Z,18.49
2022-08-19T21:16:21.048Z,18.47
2022-08-19T21:17:21.014Z,18.47
2022-08-19T21:18:21.869Z,18.46
2022-08-19T21:19:24.087Z,18.44
2022-08-19T21:20:20.992Z,18.43
2022-08-19T21:21:21.014Z,18.40
2022-08-19T21:22:20.971Z,18.40
2022-08-19T21:23:20.959Z,18.42
2022-08-19T21:24:20.989Z,18.42
2022-08-19T21:25:21.642Z,18.42
2022-08-19T21:26:20.999Z,18.43
2022-08-19T21:27:20.908Z,18.43
2022-08-19T21:28:35.048Z,18.44
2022-08-19T21:29:20.908Z,18.47
2022-08-19T21:30:20.885Z,18.46
2022-08-19T21:31:20.889Z,18.47
2022-08-19T21:32:20.873Z,18.46
2022-08-19T21:33:19.847Z,18.40
2022-08-19T21:34:20.854Z,18.37
2022-08-19T21:35:21.488Z,18.34
2022-08-19T21:36:20.851Z,18.31
2022-08-19T21:37:25.770Z,18.28
2022-08-19T21:38:20.867Z,18.25
2022-08-19T21:39:20.803Z,18.24
2022-08-19T21:40:20.785Z,18.25
2022-08-19T21:41:20.793Z,18.25
2022-08-19T21:42:20.777Z,18.27
2022-08-19T21:43:21.571Z,18.28
2022-08-19T21:44:20.748Z,18.28
2022-08-19T21:45:20.744Z,18.31
2022-08-19T21:46:21.493Z,18.33
2022-08-19T21:47:20.868Z,18.34
2022-08-19T21:48:20.839Z,18.36
2022-08-19T21:49:20.695Z,18.36
2022-08-19T21:50:20.690Z,18.36
2022-08-19T21:51:21.147Z,18.36
2022-08-19T21:52:20.660Z,18.36
2022-08-19T21:53:22.824Z,18.37
2022-08-19T21:54:20.638Z,18.39
2022-08-19T21:55:20.632Z,18.37
2022-08-19T21:56:21.002Z,18.39
2022-08-19T21:57:20.617Z,18.40
2022-08-19T21:58:28.381Z,18.39
2022-08-19T21:59:20.591Z,18.39
2022-08-19T22:00:20.579Z,18.39
2022-08-19T22:01:20.604Z,18.39
2022-08-19T22:02:21.498Z,18.39
2022-08-19T22:03:20.789Z,18.39
2022-08-19T22:04:20.553Z,18.40
2022-08-19T22:05:20.531Z,18.40
2022-08-19T22:06:21.511Z,18.40
2022-08-19T22:07:21.276Z,18.39
2022-08-19T22:08:20.508Z,18.39
2022-08-19T22:09:20.479Z,18.39
2022-08-19T22:10:22.225Z,18.40
2022-08-19T22:11:20.508Z,18.37
2022-08-19T22:12:20.462Z,18.37
2022-08-19T22:13:20.450Z,18.36
2022-08-19T22:14:20.437Z,18.36
2022-08-19T22:15:20.655Z,18.34
2022-08-19T22:16:20.659Z,18.33
2022-08-19T22:17:20.399Z,18.31
2022-08-19T22:18:20.464Z,18.29
2022-08-19T22:19:21.013Z,18.28
2022-08-19T22:20:20.396Z,18.25
2022-08-19T22:21:40.491Z,18.22
2022-08-19T22:22:20.365Z,18.19
2022-08-19T22:23:21.071Z,18.17
2022-08-19T22:24:20.339Z,18.13
2022-08-19T22:25:30.088Z,18.13
2022-08-19T22:26:20.348Z,18.12
2022-08-19T22:27:20.303Z,18.10
2022-08-19T22:28:27.895Z,18.09
2022-08-19T22:29:20.279Z,18.07
2022-08-19T22:30:20.274Z,18.07
2022-08-19T22:31:20.285Z,18.07
2022-08-19T22:32:26.756Z,18.04
2022-08-19T22:33:20.242Z,18.04
2022-08-19T22:34:20.235Z,18.03
2022-08-19T22:35:20.221Z,18.03
2022-08-19T22:36:20.215Z,18.02
2022-08-19T22:37:20.214Z,18.00
2022-08-19T22:38:20.196Z,17.99
2022-08-19T22:39:20.217Z,17.99
2022-08-19T22:40:20.166Z,17.99
2022-08-19T22:41:20.156Z,17.99
2022-08-19T22:42:20.518Z,17.97
2022-08-19T22:43:20.137Z,17.97
2022-08-19T22:44:20.144Z,17.97
2022-08-19T22:45:20.122Z,17.97
2022-08-19T22:46:20.314Z,17.97
2022-08-19T22:47:20.145Z,17.95
2022-08-19T22:48:20.110Z,17.94
2022-08-19T22:49:20.093Z,17.89
2022-08-19T22:50:20.117Z,17.91
2022-08-19T22:51:20.047Z,17.91
2022-08-19T22:52:20.077Z,17.92
2022-08-19T22:53:20.045Z,17.91
2022-08-19T22:54:20.046Z,17.89
2022-08-19T22:55:20.007Z,17.89
2022-08-19T22:56:20.010Z,17.89
2022-08-19T22:57:20.035Z,17.88
2022-08-19T22:58:27.026Z,17.88
2022-08-19T22:59:19.972Z,17.88
2022-08-19T23:00:19.966Z,17.88
2022-08-19T23:01:27.716Z,17.88
2022-08-19T23:02:19.966Z,17.89
2022-08-19T23:03:19.962Z,17.89
2022-08-19T23:04:19.923Z,17.88
2022-08-19T23:05:21.850Z,17.88
2022-08-19T23:06:19.899Z,17.87
2022-08-19T23:07:23.578Z,17.85
2022-08-19T23:08:19.890Z,17.85
2022-08-19T23:09:19.875Z,17.85
2022-08-19T23:10:26.891Z,17.84
2022-08-19T23:11:19.850Z,17.84
2022-08-19T23:12:19.880Z,17.81
2022-08-19T23:13:19.828Z,17.81
2022-08-19T23:14:19.830Z,17.76
2022-08-19T23:15:19.824Z,17.76
2022-08-19T23:16:19.803Z,17.73
2022-08-19T23:17:20.450Z,17.70
2022-08-19T23:18:19.788Z,17.69
2022-08-19T23:19:19.765Z,17.70
2022-08-19T23:20:19.769Z,17.69
2022-08-19T23:21:19.749Z,17.67
2022-08-19T23:22:19.759Z,17.69
2022-08-19T23:23:19.738Z,17.69
2022-08-19T23:24:19.961Z,17.67
2022-08-19T23:25:19.705Z,17.67
2022-08-19T23:26:19.693Z,17.66
2022-08-19T23:27:19.706Z,17.69
2022-08-19T23:28:19.678Z,17.67
2022-08-19T23:29:19.661Z,17.66
2022-08-19T23:30:19.657Z,17.66
2022-08-19T23:31:19.652Z,17.64
2022-08-19T23:32:19.654Z,17.64
2022-08-19T23:33:19.619Z,17.63
2022-08-19T23:34:19.622Z,17.63
2022-08-19T23:35:19.603Z,17.59
2022-08-19T23:36:19.781Z,17.57
2022-08-19T23:37:19.616Z,17.59
2022-08-19T23:38:19.578Z,17.55
2022-08-19T23:39:19.595Z,17.57
2022-08-19T23:40:19.564Z,17.54
2022-08-19T23:41:19.544Z,17.53
2022-08-19T23:42:19.549Z,17.51
2022-08-19T23:43:24.543Z,17.51
2022-08-19T23:44:19.761Z,17.50
2022-08-19T23:45:23.552Z,17.48
2022-08-19T23:46:28.408Z,17.48
2022-08-19T23:47:42.139Z,17.46
2022-08-19T23:48:40.476Z,17.46
2022-08-19T23:49:19.463Z,17.43
2022-08-19T23:50:19.440Z,17.43
2022-08-19T23:51:19.454Z,17.38
2022-08-19T23:52:19.547Z,17.36
2022-08-19T23:53:19.422Z,17.36
2022-08-19T23:54:19.403Z,17.33
2022-08-19T23:55:19.400Z,17.30
2022-08-19T23:56:19.389Z,17.29
2022-08-19T23:57:19.392Z,17.26
2022-08-19T23:58:19.362Z,17.26
2022-08-19T23:59:19.354Z,17.26
